sensor_id;sensor_type;location;lat;lon;timestamp;temperature;humidity
3418;DHT22;1722;51.316;12.370;2022-10-03T00:00:40;11.60;96.10
3418;DHT22;1722;51.316;12.370;2022-10-03T00:03:33;11.50;96.10
3418;DHT22;1722;51.316;12.370;2022-10-03T00:06:09;11.50;96.10
3418;DHT22;1722;51.316;12.370;2022-10-03T00:11:55;11.50;96.20
3418;DHT22;1722;51.316;12.370;2022-10-03T00:14:33;11.50;96.30
3418;DHT22;1722;51.316;12.370;2022-10-03T00:17:11;11.50;96.20
3418;DHT22;1722;51.316;12.370;2022-10-03T00:19:45;11.50;96.20
3418;DHT22;1722;51.316;12.370;2022-10-03T00:22:23;11.60;96.00
3418;DHT22;1722;51.316;12.370;2022-10-03T00:25:01;11.60;96.00
3418;DHT22;1722;51.316;12.370;2022-10-03T00:27:35;11.70;95.70
3418;DHT22;1722;51.316;12.370;2022-10-03T00:30:14;11.70;95.70
3418;DHT22;1722;51.316;12.370;2022-10-03T00:33:02;11.80;95.50
3418;DHT22;1722;51.316;12.370;2022-10-03T00:35:51;11.80;95.60
3418;DHT22;1722;51.316;12.370;2022-10-03T00:38:44;11.80;95.70
3418;DHT22;1722;51.316;12.370;2022-10-03T00:41:26;11.80;95.50
3418;DHT22;1722;51.316;12.370;2022-10-03T00:44:36;11.80;95.50
3418;DHT22;1722;51.316;12.370;2022-10-03T00:47:29;11.70;95.70
3418;DHT22;1722;51.316;12.370;2022-10-03T00:50:18;11.60;96.00
3418;DHT22;1722;51.316;12.370;2022-10-03T00:53:01;11.50;96.30
3418;DHT22;1722;51.316;12.370;2022-10-03T00:55:39;11.30;96.60
3418;DHT22;1722;51.316;12.370;2022-10-03T00:58:26;11.20;96.70
3418;DHT22;1722;51.316;12.370;2022-10-03T01:01:01;11.20;96.80
3418;DHT22;1722;51.316;12.370;2022-10-03T01:03:38;11.20;97.10
3418;DHT22;1722;51.316;12.370;2022-10-03T01:06:22;11.10;97.10
3418;DHT22;1722;51.316;12.370;2022-10-03T01:09:02;11.10;97.20
3418;DHT22;1722;51.316;12.370;2022-10-03T01:11:40;11.10;97.10
3418;DHT22;1722;51.316;12.370;2022-10-03T01:14:26;11.20;96.90
3418;DHT22;1722;51.316;12.370;2022-10-03T01:17:06;11.20;96.80
3418;DHT22;1722;51.316;12.370;2022-10-03T01:19:56;11.20;96.90
3418;DHT22;1722;51.316;12.370;2022-10-03T01:22:45;11.10;97.10
3418;DHT22;1722;51.316;12.370;2022-10-03T01:25:29;11.10;97.10
3418;DHT22;1722;51.316;12.370;2022-10-03T01:30:54;10.90;97.50
3418;DHT22;1722;51.316;12.370;2022-10-03T01:33:26;10.90;97.60
3418;DHT22;1722;51.316;12.370;2022-10-03T01:36:02;11.00;97.40
3418;DHT22;1722;51.316;12.370;2022-10-03T01:38:35;11.00;97.20
3418;DHT22;1722;51.316;12.370;2022-10-03T01:41:09;10.90;97.40
3418;DHT22;1722;51.316;12.370;2022-10-03T01:43:42;10.90;97.50
3418;DHT22;1722;51.316;12.370;2022-10-03T01:46:16;10.90;97.50
3418;DHT22;1722;51.316;12.370;2022-10-03T01:48:52;11.00;97.20
3418;DHT22;1722;51.316;12.370;2022-10-03T01:51:26;10.90;97.30
3418;DHT22;1722;51.316;12.370;2022-10-03T01:54:09;11.00;97.20
3418;DHT22;1722;51.316;12.370;2022-10-03T01:56:44;11.00;97.30
3418;DHT22;1722;51.316;12.370;2022-10-03T01:59:16;10.90;97.50
3418;DHT22;1722;51.316;12.370;2022-10-03T02:01:49;10.90;97.50
3418;DHT22;1722;51.316;12.370;2022-10-03T02:04:30;10.90;97.50
3418;DHT22;1722;51.316;12.370;2022-10-03T02:07:06;11.00;97.40
3418;DHT22;1722;51.316;12.370;2022-10-03T02:09:47;10.90;97.50
3418;DHT22;1722;51.316;12.370;2022-10-03T02:12:27;11.00;97.40
3418;DHT22;1722;51.316;12.370;2022-10-03T02:15:07;11.00;97.40
3418;DHT22;1722;51.316;12.370;2022-10-03T02:17:49;11.00;97.40
3418;DHT22;1722;51.316;12.370;2022-10-03T02:20:23;11.00;97.30
3418;DHT22;1722;51.316;12.370;2022-10-03T02:22:55;11.10;97.30
3418;DHT22;1722;51.316;12.370;2022-10-03T02:25:26;11.10;97.40
3418;DHT22;1722;51.316;12.370;2022-10-03T02:28:17;11.10;97.30
3418;DHT22;1722;51.316;12.370;2022-10-03T02:34:17;11.10;97.30
3418;DHT22;1722;51.316;12.370;2022-10-03T02:40:09;11.20;97.30
3418;DHT22;1722;51.316;12.370;2022-10-03T02:49:29;11.20;97.30
3418;DHT22;1722;51.316;12.370;2022-10-03T02:55:26;11.30;97.30
3418;DHT22;1722;51.316;12.370;2022-10-03T02:58:27;11.30;97.20
3418;DHT22;1722;51.316;12.370;2022-10-03T03:07:29;11.40;97.00
3418;DHT22;1722;51.316;12.370;2022-10-03T03:16:41;11.30;97.20
3418;DHT22;1722;51.316;12.370;2022-10-03T03:19:32;11.30;97.30
3418;DHT22;1722;51.316;12.370;2022-10-03T03:22:08;11.20;97.30
3418;DHT22;1722;51.316;12.370;2022-10-03T03:24:57;11.30;97.50
3418;DHT22;1722;51.316;12.370;2022-10-03T03:27:39;11.20;97.50
3418;DHT22;1722;51.316;12.370;2022-10-03T03:30:10;11.20;97.60
3418;DHT22;1722;51.316;12.370;2022-10-03T03:32:50;11.30;97.60
3418;DHT22;1722;51.316;12.370;2022-10-03T03:35:30;11.20;98.00
3418;DHT22;1722;51.316;12.370;2022-10-03T03:38:10;11.20;98.30
3418;DHT22;1722;51.316;12.370;2022-10-03T03:40:53;11.20;98.40
3418;DHT22;1722;51.316;12.370;2022-10-03T03:43:42;11.20;98.50
3418;DHT22;1722;51.316;12.370;2022-10-03T03:46:26;11.10;98.80
3418;DHT22;1722;51.316;12.370;2022-10-03T03:49:05;11.10;98.80
3418;DHT22;1722;51.316;12.370;2022-10-03T03:51:42;11.10;98.90
3418;DHT22;1722;51.316;12.370;2022-10-03T03:54:39;11.10;99.00
3418;DHT22;1722;51.316;12.370;2022-10-03T03:57:36;11.10;99.00
3418;DHT22;1722;51.316;12.370;2022-10-03T04:00:12;11.10;99.10
3418;DHT22;1722;51.316;12.370;2022-10-03T04:03:12;11.20;98.70
3418;DHT22;1722;51.316;12.370;2022-10-03T04:05:54;11.30;98.80
3418;DHT22;1722;51.316;12.370;2022-10-03T04:08:55;11.20;98.90
3418;DHT22;1722;51.316;12.370;2022-10-03T04:11:32;11.10;99.10
3418;DHT22;1722;51.316;12.370;2022-10-03T04:14:33;11.10;99.00
3418;DHT22;1722;51.316;12.370;2022-10-03T04:17:23;11.20;99.00
3418;DHT22;1722;51.316;12.370;2022-10-03T04:20:22;11.20;99.00
3418;DHT22;1722;51.316;12.370;2022-10-03T04:23:01;11.20;99.10
3418;DHT22;1722;51.316;12.370;2022-10-03T04:25:49;11.20;99.20
3418;DHT22;1722;51.316;12.370;2022-10-03T04:28:41;11.10;99.20
3418;DHT22;1722;51.316;12.370;2022-10-03T04:31:28;11.20;99.10
3418;DHT22;1722;51.316;12.370;2022-10-03T04:34:06;11.20;99.30
3418;DHT22;1722;51.316;12.370;2022-10-03T04:36:52;11.00;99.20
3418;DHT22;1722;51.316;12.370;2022-10-03T04:39:33;11.00;99.40
3418;DHT22;1722;51.316;12.370;2022-10-03T04:42:11;11.00;99.40
3418;DHT22;1722;51.316;12.370;2022-10-03T04:44:55;10.90;99.50
3418;DHT22;1722;51.316;12.370;2022-10-03T04:47:29;10.90;99.70
3418;DHT22;1722;51.316;12.370;2022-10-03T04:50:05;10.90;99.60
3418;DHT22;1722;51.316;12.370;2022-10-03T04:52:43;11.00;99.50
3418;DHT22;1722;51.316;12.370;2022-10-03T04:55:22;11.00;99.40
3418;DHT22;1722;51.316;12.370;2022-10-03T04:57:57;11.00;99.30
3418;DHT22;1722;51.316;12.370;2022-10-03T05:00:30;11.00;99.40
3418;DHT22;1722;51.316;12.370;2022-10-03T05:03:05;10.90;99.50
3418;DHT22;1722;51.316;12.370;2022-10-03T05:05:44;11.00;99.40
3418;DHT22;1722;51.316;12.370;2022-10-03T05:08:31;10.90;99.40
3418;DHT22;1722;51.316;12.370;2022-10-03T05:11:17;10.90;99.60
3418;DHT22;1722;51.316;12.370;2022-10-03T05:13:59;10.80;99.80
3418;DHT22;1722;51.316;12.370;2022-10-03T05:16:36;10.80;99.80
3418;DHT22;1722;51.316;12.370;2022-10-03T05:22:09;11.00;99.60
3418;DHT22;1722;51.316;12.370;2022-10-03T05:24:44;11.00;99.30
3418;DHT22;1722;51.316;12.370;2022-10-03T05:27:24;11.00;99.40
3418;DHT22;1722;51.316;12.370;2022-10-03T05:29:58;10.90;99.60
3418;DHT22;1722;51.316;12.370;2022-10-03T05:32:32;10.90;99.70
3418;DHT22;1722;51.316;12.370;2022-10-03T05:35:23;11.00;99.60
3418;DHT22;1722;51.316;12.370;2022-10-03T05:40:58;11.10;99.50
3418;DHT22;1722;51.316;12.370;2022-10-03T05:43:34;11.20;99.20
3418;DHT22;1722;51.316;12.370;2022-10-03T05:46:18;11.20;99.20
3418;DHT22;1722;51.316;12.370;2022-10-03T05:48:49;11.30;99.00
3418;DHT22;1722;51.316;12.370;2022-10-03T05:51:48;11.20;99.20
3418;DHT22;1722;51.316;12.370;2022-10-03T05:54:50;11.20;99.00
3418;DHT22;1722;51.316;12.370;2022-10-03T05:57:54;11.10;99.50
3418;DHT22;1722;51.316;12.370;2022-10-03T06:00:25;11.00;99.60
3418;DHT22;1722;51.316;12.370;2022-10-03T06:03:19;11.00;99.60
3418;DHT22;1722;51.316;12.370;2022-10-03T06:06:06;11.10;99.30
3418;DHT22;1722;51.316;12.370;2022-10-03T06:08:50;11.10;99.30
3418;DHT22;1722;51.316;12.370;2022-10-03T06:11:45;11.20;99.20
3418;DHT22;1722;51.316;12.370;2022-10-03T06:14:56;11.40;98.80
3418;DHT22;1722;51.316;12.370;2022-10-03T06:17:57;11.40;98.70
3418;DHT22;1722;51.316;12.370;2022-10-03T06:21:09;11.50;98.60
3418;DHT22;1722;51.316;12.370;2022-10-03T06:24:13;11.50;98.40
3418;DHT22;1722;51.316;12.370;2022-10-03T06:27:08;11.50;98.40
3418;DHT22;1722;51.316;12.370;2022-10-03T06:30:03;11.60;98.50
3418;DHT22;1722;51.316;12.370;2022-10-03T06:33:10;11.50;98.40
3418;DHT22;1722;51.316;12.370;2022-10-03T06:39:13;11.60;98.40
3418;DHT22;1722;51.316;12.370;2022-10-03T06:42:17;11.70;98.20
3418;DHT22;1722;51.316;12.370;2022-10-03T06:48:25;11.70;98.10
3418;DHT22;1722;51.316;12.370;2022-10-03T06:51:30;11.80;98.10
3418;DHT22;1722;51.316;12.370;2022-10-03T06:54:45;11.80;98.00
3418;DHT22;1722;51.316;12.370;2022-10-03T06:57:28;11.90;97.80
3418;DHT22;1722;51.316;12.370;2022-10-03T07:00:07;12.00;97.70
3418;DHT22;1722;51.316;12.370;2022-10-03T07:06:02;12.00;97.80
3418;DHT22;1722;51.316;12.370;2022-10-03T07:12:02;12.20;97.20
3418;DHT22;1722;51.316;12.370;2022-10-03T07:14:50;12.10;97.30
3418;DHT22;1722;51.316;12.370;2022-10-03T07:17:41;12.30;97.10
3418;DHT22;1722;51.316;12.370;2022-10-03T07:20:31;12.40;96.90
3418;DHT22;1722;51.316;12.370;2022-10-03T07:26:29;12.40;96.80
3418;DHT22;1722;51.316;12.370;2022-10-03T07:29:30;12.50;96.80
3418;DHT22;1722;51.316;12.370;2022-10-03T07:32:22;12.50;96.60
3418;DHT22;1722;51.316;12.370;2022-10-03T07:35:36;12.70;96.70
3418;DHT22;1722;51.316;12.370;2022-10-03T07:38:55;12.70;96.40
3418;DHT22;1722;51.316;12.370;2022-10-03T07:47:49;12.80;96.30
3418;DHT22;1722;51.316;12.370;2022-10-03T07:57:00;13.00;95.80
3418;DHT22;1722;51.316;12.370;2022-10-03T07:59:52;12.90;96.40
3418;DHT22;1722;51.316;12.370;2022-10-03T08:02:42;12.90;96.60
3418;DHT22;1722;51.316;12.370;2022-10-03T08:05:23;13.00;96.40
3418;DHT22;1722;51.316;12.370;2022-10-03T08:08:15;13.10;96.10
3418;DHT22;1722;51.316;12.370;2022-10-03T08:11:08;13.10;96.10
3418;DHT22;1722;51.316;12.370;2022-10-03T08:13:53;13.10;95.80
3418;DHT22;1722;51.316;12.370;2022-10-03T08:16:50;13.20;95.40
3418;DHT22;1722;51.316;12.370;2022-10-03T08:19:39;13.00;95.60
3418;DHT22;1722;51.316;12.370;2022-10-03T08:22:18;13.30;95.10
3418;DHT22;1722;51.316;12.370;2022-10-03T08:25:06;13.60;94.70
3418;DHT22;1722;51.316;12.370;2022-10-03T08:27:49;13.70;94.30
3418;DHT22;1722;51.316;12.370;2022-10-03T08:30:20;13.80;94.00
3418;DHT22;1722;51.316;12.370;2022-10-03T08:33:14;13.90;93.90
3418;DHT22;1722;51.316;12.370;2022-10-03T08:36:09;13.90;93.50
3418;DHT22;1722;51.316;12.370;2022-10-03T08:38:58;14.10;93.60
3418;DHT22;1722;51.316;12.370;2022-10-03T08:44:53;14.00;93.50
3418;DHT22;1722;51.316;12.370;2022-10-03T08:47:55;13.80;93.90
3418;DHT22;1722;51.316;12.370;2022-10-03T08:50:41;13.80;94.00
3418;DHT22;1722;51.316;12.370;2022-10-03T08:54:02;14.00;93.60
3418;DHT22;1722;51.316;12.370;2022-10-03T08:56:45;13.90;93.40
3418;DHT22;1722;51.316;12.370;2022-10-03T09:02:42;13.90;93.50
3418;DHT22;1722;51.316;12.370;2022-10-03T09:11:52;14.30;92.50
3418;DHT22;1722;51.316;12.370;2022-10-03T09:14:43;14.60;91.60
3418;DHT22;1722;51.316;12.370;2022-10-03T09:23:29;14.80;91.30
3418;DHT22;1722;51.316;12.370;2022-10-03T09:26:50;14.80;90.30
3418;DHT22;1722;51.316;12.370;2022-10-03T09:29:39;14.80;90.70
3418;DHT22;1722;51.316;12.370;2022-10-03T09:32:32;14.90;90.30
3418;DHT22;1722;51.316;12.370;2022-10-03T09:35:31;14.90;90.30
3418;DHT22;1722;51.316;12.370;2022-10-03T09:38:36;15.20;90.00
3418;DHT22;1722;51.316;12.370;2022-10-03T09:47:45;15.90;86.10
3418;DHT22;1722;51.316;12.370;2022-10-03T09:50:59;16.00;84.50
3418;DHT22;1722;51.316;12.370;2022-10-03T09:57:01;15.70;86.20
3418;DHT22;1722;51.316;12.370;2022-10-03T09:59:54;15.40;85.40
3418;DHT22;1722;51.316;12.370;2022-10-03T10:12:32;16.40;83.10
3418;DHT22;1722;51.316;12.370;2022-10-03T10:15:19;16.30;82.40
3418;DHT22;1722;51.316;12.370;2022-10-03T10:18:05;16.20;81.30
3418;DHT22;1722;51.316;12.370;2022-10-03T10:23:48;15.90;82.80
3418;DHT22;1722;51.316;12.370;2022-10-03T10:29:35;16.00;81.90
3418;DHT22;1722;51.316;12.370;2022-10-03T10:35:33;16.40;80.80
3418;DHT22;1722;51.316;12.370;2022-10-03T10:38:28;16.90;79.30
3418;DHT22;1722;51.316;12.370;2022-10-03T10:47:54;16.60;77.00
3418;DHT22;1722;51.316;12.370;2022-10-03T10:57:13;17.30;76.90
3418;DHT22;1722;51.316;12.370;2022-10-03T11:03:25;17.60;74.60
3418;DHT22;1722;51.316;12.370;2022-10-03T11:06:39;17.70;73.70
3418;DHT22;1722;51.316;12.370;2022-10-03T11:09:54;18.00;76.80
3418;DHT22;1722;51.316;12.370;2022-10-03T11:13:05;19.00;69.50
3418;DHT22;1722;51.316;12.370;2022-10-03T11:16:21;20.70;65.60
3418;DHT22;1722;51.316;12.370;2022-10-03T11:19:34;21.80;55.90
3418;DHT22;1722;51.316;12.370;2022-10-03T11:22:43;20.60;59.60
3418;DHT22;1722;51.316;12.370;2022-10-03T11:26:05;20.40;61.70
3418;DHT22;1722;51.316;12.370;2022-10-03T11:32:14;18.30;66.00
3418;DHT22;1722;51.316;12.370;2022-10-03T11:38:11;17.60;73.40
3418;DHT22;1722;51.316;12.370;2022-10-03T11:40:51;20.00;65.00
3418;DHT22;1722;51.316;12.370;2022-10-03T11:46:26;20.70;59.10
3418;DHT22;1722;51.316;12.370;2022-10-03T11:49:01;19.60;62.10
3418;DHT22;1722;51.316;12.370;2022-10-03T11:51:39;18.80;65.70
3418;DHT22;1722;51.316;12.370;2022-10-03T11:54:19;18.20;68.70
3418;DHT22;1722;51.316;12.370;2022-10-03T11:56:49;18.00;69.10
3418;DHT22;1722;51.316;12.370;2022-10-03T11:59:39;17.20;71.80
3418;DHT22;1722;51.316;12.370;2022-10-03T12:02:19;17.00;72.70
3418;DHT22;1722;51.316;12.370;2022-10-03T12:04:56;17.00;76.40
3418;DHT22;1722;51.316;12.370;2022-10-03T12:07:39;17.10;74.40
3418;DHT22;1722;51.316;12.370;2022-10-03T12:10:40;17.00;74.70
3418;DHT22;1722;51.316;12.370;2022-10-03T12:13:12;16.80;77.50
3418;DHT22;1722;51.316;12.370;2022-10-03T12:15:45;16.70;78.20
3418;DHT22;1722;51.316;12.370;2022-10-03T12:18:17;16.70;79.10
3418;DHT22;1722;51.316;12.370;2022-10-03T12:21:08;17.10;78.60
3418;DHT22;1722;51.316;12.370;2022-10-03T12:24:01;17.70;75.20
3418;DHT22;1722;51.316;12.370;2022-10-03T12:26:42;17.70;74.10
3418;DHT22;1722;51.316;12.370;2022-10-03T12:29:14;17.70;74.40
3418;DHT22;1722;51.316;12.370;2022-10-03T12:31:49;17.40;74.40
3418;DHT22;1722;51.316;12.370;2022-10-03T12:34:31;17.40;74.90
3418;DHT22;1722;51.316;12.370;2022-10-03T12:37:12;17.80;73.30
3418;DHT22;1722;51.316;12.370;2022-10-03T12:39:49;17.90;72.40
3418;DHT22;1722;51.316;12.370;2022-10-03T12:42:27;17.60;72.00
3418;DHT22;1722;51.316;12.370;2022-10-03T12:44:58;17.30;72.50
3418;DHT22;1722;51.316;12.370;2022-10-03T12:47:39;17.50;74.00
3418;DHT22;1722;51.316;12.370;2022-10-03T12:50:25;17.50;73.00
3418;DHT22;1722;51.316;12.370;2022-10-03T12:53:08;17.60;72.60
3418;DHT22;1722;51.316;12.370;2022-10-03T12:55:46;17.50;73.00
3418;DHT22;1722;51.316;12.370;2022-10-03T12:58:31;17.60;71.60
3418;DHT22;1722;51.316;12.370;2022-10-03T13:01:07;17.90;70.50
3418;DHT22;1722;51.316;12.370;2022-10-03T13:03:42;18.40;68.80
3418;DHT22;1722;51.316;12.370;2022-10-03T13:06:35;18.70;69.00
3418;DHT22;1722;51.316;12.370;2022-10-03T13:09:14;18.70;67.30
3418;DHT22;1722;51.316;12.370;2022-10-03T13:11:54;18.60;66.90
3418;DHT22;1722;51.316;12.370;2022-10-03T13:14:33;18.30;67.40
3418;DHT22;1722;51.316;12.370;2022-10-03T13:17:12;17.90;69.40
3418;DHT22;1722;51.316;12.370;2022-10-03T13:19:49;17.70;70.00
3418;DHT22;1722;51.316;12.370;2022-10-03T13:22:28;17.80;71.40
3418;DHT22;1722;51.316;12.370;2022-10-03T13:25:03;17.60;70.20
3418;DHT22;1722;51.316;12.370;2022-10-03T13:27:39;17.60;69.20
3418;DHT22;1722;51.316;12.370;2022-10-03T13:30:17;17.60;71.40
3418;DHT22;1722;51.316;12.370;2022-10-03T13:32:48;17.80;69.60
3418;DHT22;1722;51.316;12.370;2022-10-03T13:35:28;18.50;68.40
3418;DHT22;1722;51.316;12.370;2022-10-03T13:38:42;19.50;65.50
3418;DHT22;1722;51.316;12.370;2022-10-03T13:41:20;20.70;60.70
3418;DHT22;1722;51.316;12.370;2022-10-03T13:43:55;20.60;59.80
3418;DHT22;1722;51.316;12.370;2022-10-03T13:46:30;20.30;60.20
3418;DHT22;1722;51.316;12.370;2022-10-03T13:49:02;19.80;61.70
3418;DHT22;1722;51.316;12.370;2022-10-03T13:51:46;19.20;62.80
3418;DHT22;1722;51.316;12.370;2022-10-03T13:54:20;18.60;64.50
3418;DHT22;1722;51.316;12.370;2022-10-03T13:56:53;18.40;67.40
3418;DHT22;1722;51.316;12.370;2022-10-03T13:59:38;18.60;67.30
3418;DHT22;1722;51.316;12.370;2022-10-03T14:02:50;18.20;68.50
3418;DHT22;1722;51.316;12.370;2022-10-03T14:05:43;17.60;71.20
3418;DHT22;1722;51.316;12.370;2022-10-03T14:08:28;17.00;74.20
3418;DHT22;1722;51.316;12.370;2022-10-03T14:11:15;17.10;77.00
3418;DHT22;1722;51.316;12.370;2022-10-03T14:14:03;16.90;79.70
3418;DHT22;1722;51.316;12.370;2022-10-03T14:16:34;16.90;78.90
3418;DHT22;1722;51.316;12.370;2022-10-03T14:19:12;16.80;80.10
3418;DHT22;1722;51.316;12.370;2022-10-03T14:21:53;17.10;82.00
3418;DHT22;1722;51.316;12.370;2022-10-03T14:24:39;17.70;78.20
3418;DHT22;1722;51.316;12.370;2022-10-03T14:27:35;18.50;75.90
3418;DHT22;1722;51.316;12.370;2022-10-03T14:30:05;19.20;71.50
3418;DHT22;1722;51.316;12.370;2022-10-03T14:32:42;19.60;69.10
3418;DHT22;1722;51.316;12.370;2022-10-03T14:35:22;19.90;68.00
3418;DHT22;1722;51.316;12.370;2022-10-03T14:37:56;20.00;63.20
3418;DHT22;1722;51.316;12.370;2022-10-03T14:40:28;20.00;64.60
3418;DHT22;1722;51.316;12.370;2022-10-03T14:43:15;20.10;61.70
3418;DHT22;1722;51.316;12.370;2022-10-03T14:45:49;20.20;61.30
3418;DHT22;1722;51.316;12.370;2022-10-03T14:48:19;20.20;61.80
3418;DHT22;1722;51.316;12.370;2022-10-03T14:50:53;20.30;61.20
3418;DHT22;1722;51.316;12.370;2022-10-03T14:53:25;20.60;60.40
3418;DHT22;1722;51.316;12.370;2022-10-03T14:55:59;20.80;60.50
3418;DHT22;1722;51.316;12.370;2022-10-03T14:58:29;20.60;59.80
3418;DHT22;1722;51.316;12.370;2022-10-03T15:01:05;20.30;59.70
3418;DHT22;1722;51.316;12.370;2022-10-03T15:03:40;20.10;60.50
3418;DHT22;1722;51.316;12.370;2022-10-03T15:06:29;19.80;61.50
3418;DHT22;1722;51.316;12.370;2022-10-03T15:08:59;19.50;62.80
3418;DHT22;1722;51.316;12.370;2022-10-03T15:11:31;19.40;63.90
3418;DHT22;1722;51.316;12.370;2022-10-03T15:14:02;19.40;63.90
3418;DHT22;1722;51.316;12.370;2022-10-03T15:16:33;19.10;63.60
3418;DHT22;1722;51.316;12.370;2022-10-03T15:19:10;18.70;65.60
3418;DHT22;1722;51.316;12.370;2022-10-03T15:21:43;18.50;66.00
3418;DHT22;1722;51.316;12.370;2022-10-03T15:24:18;18.20;66.90
3418;DHT22;1722;51.316;12.370;2022-10-03T15:26:50;18.40;66.80
3418;DHT22;1722;51.316;12.370;2022-10-03T15:29:18;18.40;67.50
3418;DHT22;1722;51.316;12.370;2022-10-03T15:31:47;18.40;67.90
3418;DHT22;1722;51.316;12.370;2022-10-03T15:34:17;18.60;67.30
3418;DHT22;1722;51.316;12.370;2022-10-03T15:36:49;18.80;68.10
3418;DHT22;1722;51.316;12.370;2022-10-03T15:39:19;18.90;66.30
3418;DHT22;1722;51.316;12.370;2022-10-03T15:41:53;19.10;67.40
3418;DHT22;1722;51.316;12.370;2022-10-03T15:44:24;19.20;66.10
3418;DHT22;1722;51.316;12.370;2022-10-03T15:47:00;19.30;66.40
3418;DHT22;1722;51.316;12.370;2022-10-03T15:49:35;19.40;66.60
3418;DHT22;1722;51.316;12.370;2022-10-03T15:52:14;19.10;66.00
3418;DHT22;1722;51.316;12.370;2022-10-03T15:54:46;18.90;66.90
3418;DHT22;1722;51.316;12.370;2022-10-03T15:57:18;18.60;67.40
3418;DHT22;1722;51.316;12.370;2022-10-03T15:59:52;18.30;68.70
3418;DHT22;1722;51.316;12.370;2022-10-03T16:02:25;18.10;71.10
3418;DHT22;1722;51.316;12.370;2022-10-03T16:04:54;17.90;70.80
3418;DHT22;1722;51.316;12.370;2022-10-03T16:07:32;17.60;72.10
3418;DHT22;1722;51.316;12.370;2022-10-03T16:10:14;17.50;73.10
3418;DHT22;1722;51.316;12.370;2022-10-03T16:12:54;17.50;73.20
3418;DHT22;1722;51.316;12.370;2022-10-03T16:15:28;17.50;73.10
3418;DHT22;1722;51.316;12.370;2022-10-03T16:18:05;17.50;73.50
3418;DHT22;1722;51.316;12.370;2022-10-03T16:20:37;17.50;73.80
3418;DHT22;1722;51.316;12.370;2022-10-03T16:23:14;17.50;73.60
3418;DHT22;1722;51.316;12.370;2022-10-03T16:25:46;17.30;74.30
3418;DHT22;1722;51.316;12.370;2022-10-03T16:28:18;17.20;75.40
3418;DHT22;1722;51.316;12.370;2022-10-03T16:30:57;17.10;75.60
3418;DHT22;1722;51.316;12.370;2022-10-03T16:33:27;17.00;76.20
3418;DHT22;1722;51.316;12.370;2022-10-03T16:35:59;16.90;76.20
3418;DHT22;1722;51.316;12.370;2022-10-03T16:38:33;16.80;76.60
3418;DHT22;1722;51.316;12.370;2022-10-03T16:41:05;16.70;77.00
3418;DHT22;1722;51.316;12.370;2022-10-03T16:43:39;16.80;77.30
3418;DHT22;1722;51.316;12.370;2022-10-03T16:46:10;16.70;77.20
3418;DHT22;1722;51.316;12.370;2022-10-03T16:48:41;16.70;77.60
3418;DHT22;1722;51.316;12.370;2022-10-03T16:51:35;16.70;78.30
3418;DHT22;1722;51.316;12.370;2022-10-03T16:54:06;16.60;78.50
3418;DHT22;1722;51.316;12.370;2022-10-03T16:56:43;16.60;78.30
3418;DHT22;1722;51.316;12.370;2022-10-03T16:59:15;16.50;78.90
3418;DHT22;1722;51.316;12.370;2022-10-03T17:01:48;16.40;79.70
3418;DHT22;1722;51.316;12.370;2022-10-03T17:04:21;16.50;80.80
3418;DHT22;1722;51.316;12.370;2022-10-03T17:06:50;16.50;81.20
3418;DHT22;1722;51.316;12.370;2022-10-03T17:09:25;16.30;82.80
3418;DHT22;1722;51.316;12.370;2022-10-03T17:11:57;16.10;83.30
3418;DHT22;1722;51.316;12.370;2022-10-03T17:14:30;16.10;83.30
3418;DHT22;1722;51.316;12.370;2022-10-03T17:17:03;16.20;83.60
3418;DHT22;1722;51.316;12.370;2022-10-03T17:19:35;16.20;83.40
3418;DHT22;1722;51.316;12.370;2022-10-03T17:22:12;16.30;82.90
3418;DHT22;1722;51.316;12.370;2022-10-03T17:24:45;16.30;82.90
3418;DHT22;1722;51.316;12.370;2022-10-03T17:27:22;16.30;83.00
3418;DHT22;1722;51.316;12.370;2022-10-03T17:29:55;16.30;83.10
3418;DHT22;1722;51.316;12.370;2022-10-03T17:32:27;16.30;83.30
3418;DHT22;1722;51.316;12.370;2022-10-03T17:35:01;16.30;83.20
3418;DHT22;1722;51.316;12.370;2022-10-03T17:40:47;16.20;83.60
3418;DHT22;1722;51.316;12.370;2022-10-03T17:43:20;16.20;83.80
3418;DHT22;1722;51.316;12.370;2022-10-03T17:45:56;16.20;83.90
3418;DHT22;1722;51.316;12.370;2022-10-03T17:48:34;16.10;84.30
3418;DHT22;1722;51.316;12.370;2022-10-03T17:51:28;16.00;85.00
3418;DHT22;1722;51.316;12.370;2022-10-03T17:53:58;15.90;85.40
3418;DHT22;1722;51.316;12.370;2022-10-03T17:56:31;15.80;85.70
3418;DHT22;1722;51.316;12.370;2022-10-03T17:59:02;15.50;87.00
3418;DHT22;1722;51.316;12.370;2022-10-03T18:01:35;15.40;87.90
3418;DHT22;1722;51.316;12.370;2022-10-03T18:04:10;15.50;87.40
3418;DHT22;1722;51.316;12.370;2022-10-03T18:06:46;15.50;87.50
3418;DHT22;1722;51.316;12.370;2022-10-03T18:09:27;15.40;88.30
3418;DHT22;1722;51.316;12.370;2022-10-03T18:12:04;15.20;88.80
3418;DHT22;1722;51.316;12.370;2022-10-03T18:14:43;15.10;89.60
3418;DHT22;1722;51.316;12.370;2022-10-03T18:17:13;15.10;90.00
3418;DHT22;1722;51.316;12.370;2022-10-03T18:19:57;15.10;90.10
3418;DHT22;1722;51.316;12.370;2022-10-03T18:22:30;15.10;90.10
3418;DHT22;1722;51.316;12.370;2022-10-03T18:25:08;15.00;90.20
3418;DHT22;1722;51.316;12.370;2022-10-03T18:28:19;15.10;90.10
3418;DHT22;1722;51.316;12.370;2022-10-03T18:30:50;15.00;90.40
3418;DHT22;1722;51.316;12.370;2022-10-03T18:33:21;15.00;90.20
3418;DHT22;1722;51.316;12.370;2022-10-03T18:35:50;15.10;90.20
3418;DHT22;1722;51.316;12.370;2022-10-03T18:38:21;15.00;90.20
3418;DHT22;1722;51.316;12.370;2022-10-03T18:40:51;15.00;90.40
3418;DHT22;1722;51.316;12.370;2022-10-03T18:43:34;14.90;90.70
3418;DHT22;1722;51.316;12.370;2022-10-03T18:46:09;15.00;90.40
3418;DHT22;1722;51.316;12.370;2022-10-03T18:48:48;14.90;90.50
3418;DHT22;1722;51.316;12.370;2022-10-03T18:51:24;14.90;90.50
3418;DHT22;1722;51.316;12.370;2022-10-03T18:53:56;14.80;90.70
3418;DHT22;1722;51.316;12.370;2022-10-03T18:56:26;14.90;90.60
3418;DHT22;1722;51.316;12.370;2022-10-03T18:59:06;15.00;90.70
3418;DHT22;1722;51.316;12.370;2022-10-03T19:01:43;14.90;90.50
3418;DHT22;1722;51.316;12.370;2022-10-03T19:04:22;14.90;90.60
3418;DHT22;1722;51.316;12.370;2022-10-03T19:06:52;14.90;90.50
3418;DHT22;1722;51.316;12.370;2022-10-03T19:09:24;14.90;91.10
3418;DHT22;1722;51.316;12.370;2022-10-03T19:11:55;14.80;90.80
3418;DHT22;1722;51.316;12.370;2022-10-03T19:14:29;14.90;90.60
3418;DHT22;1722;51.316;12.370;2022-10-03T19:17:10;14.90;90.60
3418;DHT22;1722;51.316;12.370;2022-10-03T19:19:51;14.90;90.70
3418;DHT22;1722;51.316;12.370;2022-10-03T19:22:24;14.90;90.70
3418;DHT22;1722;51.316;12.370;2022-10-03T19:24:53;14.80;90.80
3418;DHT22;1722;51.316;12.370;2022-10-03T19:27:33;14.90;90.70
3418;DHT22;1722;51.316;12.370;2022-10-03T19:30:07;14.80;90.70
3418;DHT22;1722;51.316;12.370;2022-10-03T19:32:46;14.80;90.90
3418;DHT22;1722;51.316;12.370;2022-10-03T19:35:16;14.80;90.70
3418;DHT22;1722;51.316;12.370;2022-10-03T19:37:48;14.80;91.00
3418;DHT22;1722;51.316;12.370;2022-10-03T19:40:41;14.80;90.90
3418;DHT22;1722;51.316;12.370;2022-10-03T19:43:33;14.80;90.90
3418;DHT22;1722;51.316;12.370;2022-10-03T19:46:24;14.70;91.10